createdAt,value
2023-01-04T00:01:18.644Z,0.00
2023-01-04T00:06:19.397Z,0.00
2023-01-04T00:11:20.143Z,0.00
2023-01-04T00:16:21.181Z,0.00
2023-01-04T00:21:21.578Z,0.00
2023-01-04T00:26:22.355Z,0.00
2023-01-04T00:31:23.189Z,0.00
2023-01-04T00:36:23.962Z,0.00
2023-01-04T00:41:56.863Z,0.00
2023-01-04T00:46:26.395Z,0.00
2023-01-04T00:51:26.135Z,0.00
2023-01-04T00:56:26.871Z,0.00
2023-01-04T01:01:27.719Z,0.00
2023-01-04T01:06:28.622Z,0.00
2023-01-04T01:11:29.543Z,0.00
2023-01-04T01:16:55.354Z,0.00
2023-01-04T01:21:31.912Z,0.00
2023-01-04T01:26:31.691Z,0.00
2023-01-04T01:31:32.603Z,0.00
2023-01-04T01:36:33.313Z,0.00
2023-01-04T01:41:34.166Z,0.00
2023-01-04T01:46:35.020Z,0.00
2023-01-04T01:51:35.767Z,0.00
2023-01-04T01:56:36.479Z,0.00
2023-01-04T02:01:37.271Z,0.00
2023-01-04T02:06:38.026Z,0.00
2023-01-04T02:11:38.752Z,0.00
2023-01-04T02:16:39.514Z,0.00
2023-01-04T02:21:40.237Z,0.00
2023-01-04T02:26:40.968Z,0.00
2023-01-04T02:31:41.781Z,0.00
2023-01-04T02:36:42.521Z,0.00
2023-01-04T02:41:43.234Z,0.00
2023-01-04T02:46:44.001Z,0.00
2023-01-04T02:51:44.849Z,0.00
2023-01-04T02:56:45.561Z,0.00
2023-01-04T03:01:46.397Z,0.00
2023-01-04T03:06:47.167Z,0.00
2023-01-04T03:11:47.856Z,0.00
2023-01-04T03:16:48.578Z,0.00
2023-01-04T03:21:49.364Z,0.00
2023-01-04T03:26:50.725Z,0.00
2023-01-04T03:31:51.113Z,0.00
2023-01-04T03:36:51.873Z,0.00
2023-01-04T03:41:52.637Z,0.00
2023-01-04T03:46:53.395Z,0.00
2023-01-04T03:51:54.113Z,0.00
2023-01-04T03:56:54.861Z,0.00
2023-01-04T04:01:55.635Z,0.00
2023-01-04T04:07:03.401Z,0.00
2023-01-04T04:11:57.141Z,0.00
2023-01-04T04:16:57.939Z,0.00
2023-01-04T04:21:58.649Z,0.00
2023-01-04T04:26:59.368Z,0.00
2023-01-04T04:32:00.223Z,0.00
2023-01-04T04:37:00.915Z,0.00
2023-01-04T04:42:01.657Z,0.00
2023-01-04T04:47:02.405Z,0.00
2023-01-04T04:52:03.082Z,0.00
2023-01-04T04:57:03.815Z,0.00
2023-01-04T05:02:04.784Z,0.00
2023-01-04T05:07:12.079Z,0.00
2023-01-04T05:12:06.754Z,0.00
2023-01-04T05:17:06.591Z,0.00
2023-01-04T05:22:07.256Z,0.00
2023-01-04T05:27:08.007Z,0.00
2023-01-04T05:32:08.796Z,0.00
2023-01-04T05:37:09.522Z,0.00
2023-01-04T05:42:10.232Z,0.00
2023-01-04T05:47:14.847Z,0.00
2023-01-04T05:52:11.538Z,0.00
2023-01-04T05:57:12.230Z,0.00
2023-01-04T06:02:13.065Z,0.00
2023-01-04T06:07:13.955Z,0.00
2023-01-04T06:12:14.638Z,0.00
2023-01-04T06:17:15.370Z,1.00
2023-01-04T06:22:16.069Z,0.00
2023-01-04T06:27:16.782Z,0.00
2023-01-04T06:32:17.493Z,0.00
2023-01-04T06:37:18.226Z,0.00
2023-01-04T06:42:18.964Z,0.00
2023-01-04T06:47:19.670Z,0.00
2023-01-04T06:52:20.331Z,2.00
2023-01-04T06:57:20.991Z,1.00
2023-01-04T07:02:22.004Z,2.00
2023-01-04T07:07:22.167Z,6.00
2023-01-04T07:12:22.836Z,44.00
2023-01-04T07:17:28.088Z,44.00
2023-01-04T07:22:25.086Z,137.00
2023-01-04T07:27:24.761Z,52.00
2023-01-04T07:32:25.441Z,28.00
2023-01-04T07:37:26.147Z,33.00
2023-01-04T07:42:26.815Z,80.00
2023-01-04T07:47:27.640Z,77.00
2023-01-04T07:52:28.247Z,69.00
2023-01-04T07:57:28.906Z,57.00
2023-01-04T08:02:29.701Z,84.00
2023-01-04T08:07:30.411Z,107.00
2023-01-04T08:12:31.080Z,75.00
2023-01-04T08:17:31.793Z,162.00
2023-01-04T08:22:32.571Z,155.00
2023-01-04T08:27:33.253Z,183.00
2023-01-04T08:32:34.047Z,151.00
2023-01-04T08:37:34.708Z,258.00
2023-01-04T08:42:35.399Z,259.00
2023-01-04T08:47:36.066Z,319.00
2023-01-04T08:52:36.732Z,241.00
2023-01-04T08:57:37.493Z,156.00
2023-01-04T09:02:38.257Z,134.00
2023-01-04T09:07:38.965Z,143.00
2023-01-04T09:12:39.659Z,51.00
2023-01-04T09:17:57.947Z,361.00
2023-01-04T09:22:41.996Z,322.00
2023-01-04T09:27:41.764Z,284.00
2023-01-04T09:32:42.524Z,221.00
2023-01-04T09:37:43.160Z,221.00
2023-01-04T09:42:44.893Z,405.00
2023-01-04T09:47:45.651Z,313.00
2023-01-04T09:52:45.336Z,259.00
2023-01-04T09:57:45.991Z,196.00
2023-01-04T10:02:46.868Z,408.00
2023-01-04T10:07:47.625Z,366.00
2023-01-04T10:12:59.771Z,282.00
2023-01-04T10:22:50.662Z,186.00
2023-01-04T10:27:50.431Z,297.00
2023-01-04T10:32:51.140Z,399.00
2023-01-04T10:37:51.755Z,378.00
2023-01-04T10:42:52.420Z,316.00
2023-01-04T10:47:53.142Z,285.00
2023-01-04T10:52:53.916Z,268.00
2023-01-04T10:57:54.567Z,257.00
2023-01-04T11:02:55.525Z,244.00
2023-01-04T11:07:55.756Z,205.00
2023-01-04T11:12:56.463Z,228.00
2023-01-04T11:17:57.110Z,322.00
2023-01-04T11:22:57.827Z,371.00
2023-01-04T11:27:58.596Z,344.00
2023-01-04T11:32:59.206Z,313.00
2023-01-04T11:37:59.878Z,283.00
2023-01-04T11:43:00.684Z,365.00
2023-01-04T11:48:01.302Z,389.00
2023-01-04T11:53:01.956Z,315.00
2023-01-04T11:58:02.674Z,328.00
2023-01-04T12:03:03.521Z,459.00
2023-01-04T12:08:04.282Z,359.00
2023-01-04T12:13:04.974Z,334.00
2023-01-04T12:18:05.677Z,409.00
2023-01-04T12:23:06.370Z,450.00
2023-01-04T12:28:07.089Z,354.00
2023-01-04T12:33:07.751Z,471.00
2023-01-04T12:38:08.515Z,406.00
2023-01-04T12:43:09.173Z,439.00
2023-01-04T12:48:09.897Z,471.00
2023-01-04T12:53:29.023Z,382.00
2023-01-04T12:58:12.106Z,322.00
2023-01-04T13:03:12.082Z,245.00
2023-01-04T13:08:12.341Z,186.00
2023-01-04T13:13:13.023Z,124.00
2023-01-04T13:18:13.671Z,219.00
2023-01-04T13:23:14.357Z,167.00
2023-01-04T13:28:17.186Z,317.00
2023-01-04T13:33:26.418Z,274.00
2023-01-04T13:38:17.618Z,204.00
2023-01-04T13:43:17.286Z,175.00
2023-01-04T13:48:19.208Z,287.00
2023-01-04T13:53:19.008Z,186.00
2023-01-04T13:58:19.654Z,175.00
2023-01-04T14:03:20.401Z,102.00
2023-01-04T14:08:21.040Z,198.00
2023-01-04T14:13:21.820Z,40.00
2023-01-04T14:18:22.484Z,237.00
2023-01-04T14:23:23.162Z,136.00
2023-01-04T14:28:23.864Z,130.00
2023-01-04T14:33:24.596Z,113.00
2023-01-04T14:38:25.371Z,97.00
2023-01-04T14:43:26.132Z,86.00
2023-01-04T14:48:26.804Z,65.00
2023-01-04T14:53:27.504Z,49.00
2023-01-04T14:58:28.202Z,35.00
2023-01-04T15:03:29.033Z,26.00
2023-01-04T15:08:29.768Z,28.00
2023-01-04T15:13:36.776Z,19.00
2023-01-04T15:18:32.083Z,13.00
2023-01-04T15:23:31.825Z,9.00
2023-01-04T15:28:32.595Z,3.00
2023-01-04T15:33:33.258Z,1.00
2023-01-04T15:38:33.982Z,0.00
2023-01-04T15:43:36.380Z,0.00
2023-01-04T15:48:35.422Z,0.00
2023-01-04T15:53:36.162Z,0.00
2023-01-04T15:58:36.823Z,1.00
2023-01-04T16:03:37.714Z,0.00
2023-01-04T16:08:38.416Z,0.00
2023-01-04T16:13:39.094Z,1.00
2023-01-04T16:18:39.844Z,0.00
2023-01-04T16:23:40.504Z,1.00
2023-01-04T16:28:41.341Z,0.00
2023-01-04T16:33:42.068Z,0.00
2023-01-04T16:38:42.781Z,0.00
2023-01-04T16:43:43.510Z,0.00
2023-01-04T16:48:44.280Z,0.00
2023-01-04T16:53:45.084Z,0.00
2023-01-04T16:58:45.829Z,0.00
2023-01-04T17:03:46.628Z,0.00
2023-01-04T17:08:47.342Z,0.00
2023-01-04T17:13:48.103Z,0.00
2023-01-04T17:18:48.835Z,0.00
2023-01-04T17:23:49.579Z,0.00
2023-01-04T17:28:50.361Z,0.00
2023-01-04T17:33:51.079Z,0.00
2023-01-04T17:38:51.753Z,1.00
2023-01-04T17:43:52.520Z,0.00
2023-01-04T17:49:21.017Z,0.00
2023-01-04T17:53:54.832Z,0.00
2023-01-04T17:58:54.556Z,0.00
2023-01-04T18:03:55.304Z,0.00
2023-01-04T18:08:56.012Z,0.00
2023-01-04T18:13:56.747Z,0.00
2023-01-04T18:18:57.460Z,1.00
2023-01-04T18:28:59.711Z,1.00
2023-01-04T18:33:59.420Z,0.00
2023-01-04T18:39:00.169Z,0.00
2023-01-04T18:44:22.594Z,0.00
2023-01-04T18:49:02.477Z,0.00
2023-01-04T18:54:02.248Z,0.00
2023-01-04T18:59:02.926Z,0.00
2023-01-04T19:04:03.696Z,0.00
2023-01-04T19:09:06.695Z,0.00
2023-01-04T19:14:04.872Z,0.00
2023-01-04T19:19:05.596Z,0.00
2023-01-04T19:24:06.344Z,0.00
2023-01-04T19:29:07.044Z,0.00
2023-01-04T19:34:07.799Z,0.00
2023-01-04T19:39:08.589Z,0.00
2023-01-04T19:44:09.253Z,0.00
2023-01-04T19:49:14.744Z,0.00
2023-01-04T19:54:11.619Z,0.00
2023-01-04T19:59:11.348Z,0.00
2023-01-04T20:04:12.041Z,0.00
2023-01-04T20:09:12.841Z,0.00
2023-01-04T20:14:13.562Z,0.00
2023-01-04T20:19:14.296Z,0.00
2023-01-04T20:24:15.004Z,0.00
2023-01-04T20:29:15.727Z,0.00
2023-01-04T20:34:16.592Z,1.00
2023-01-04T20:39:17.296Z,0.00
2023-01-04T20:44:18.021Z,0.00
2023-01-04T20:49:18.766Z,0.00
2023-01-04T20:54:19.465Z,1.00
2023-01-04T20:59:20.160Z,0.00
2023-01-04T21:04:20.913Z,0.00
2023-01-04T21:09:21.681Z,0.00
2023-01-04T21:14:22.426Z,0.00
2023-01-04T21:19:23.144Z,0.00
2023-01-04T21:24:23.874Z,0.00
2023-01-04T21:29:24.619Z,0.00
2023-01-04T21:34:25.327Z,0.00
2023-01-04T21:39:26.100Z,0.00
2023-01-04T21:44:26.815Z,0.00
2023-01-04T21:49:27.557Z,0.00
2023-01-04T21:54:28.254Z,0.00
2023-01-04T21:59:28.980Z,0.00
2023-01-04T22:04:29.812Z,0.00
2023-01-04T22:09:30.562Z,0.00
2023-01-04T22:14:31.270Z,0.00
2023-01-04T22:19:31.974Z,0.00
2023-01-04T22:24:37.682Z,0.00
2023-01-04T22:29:34.332Z,0.00
2023-01-04T22:34:34.079Z,0.00
2023-01-04T22:39:34.810Z,0.00
2023-01-04T22:44:35.565Z,0.00
2023-01-04T22:49:36.362Z,0.00
2023-01-04T22:54:37.059Z,0.00
2023-01-04T22:59:37.822Z,0.00
2023-01-04T23:04:38.542Z,0.00
2023-01-04T23:09:39.253Z,0.00
2023-01-04T23:14:39.999Z,0.00
2023-01-04T23:19:40.723Z,0.00
2023-01-04T23:24:41.430Z,0.00
2023-01-04T23:29:42.163Z,0.00
2023-01-04T23:34:42.908Z,0.00
2023-01-04T23:39:43.650Z,0.00
2023-01-04T23:44:44.386Z,0.00
2023-01-04T23:49:45.109Z,0.00
2023-01-04T23:54:45.849Z,0.00
2023-01-04T23:59:46.576Z,0.00
